Time;durP1;ratioP1;P1;durP2;ratioP2;P2;SDS_P1;SDS_P2;PMS_P1;PMS_P2;Temp;Humidity;BMP_temperature;BMP_pressure;BME280_temperature;BME280_humidity;BME280_pressure;Samples;Min_cycle;Max_cycle;Signal;HPM_P1;HPM_P2
2023/03/14 00:01:23;;;;;;;1.23;0.82;;;14.80;70.90;;;;;;5001976;28;20040;-71
2023/03/14 00:03:48;;;;;;;2.13;1.33;;;14.80;70.90;;;;;;5034132;28;20087;-64
2023/03/14 00:06:15;;;;;;;1.15;0.90;;;14.70;71.00;;;;;;5033569;28;20508;-64
2023/03/14 00:08:42;;;;;;;1.10;0.95;;;14.70;71.20;;;;;;5030438;28;20037;-65
2023/03/14 00:11:19;;;;;;;1.00;0.65;;;14.70;71.10;;;;;;5030853;28;20069;-64
2023/03/14 00:13:49;;;;;;;1.48;0.88;;;14.70;71.00;;;;;;5028834;28;20053;-65
2023/03/14 00:16:15;;;;;;;1.73;1.30;;;14.70;70.90;;;;;;5025441;28;20478;-65
2023/03/14 00:18:41;;;;;;;2.70;1.20;;;14.70;71.00;;;;;;5027647;28;20018;-64
2023/03/14 00:21:07;;;;;;;3.40;0.90;;;14.70;71.20;;;;;;5031702;28;20107;-64
2023/03/14 00:23:36;;;;;;;2.40;0.90;;;14.60;71.40;;;;;;5036459;28;20021;-63
2023/03/14 00:26:07;;;;;;;1.65;1.15;;;14.60;71.70;;;;;;5035485;28;20489;-64
2023/03/14 00:28:33;;;;;;;1.65;1.20;;;14.60;71.70;;;;;;5033071;28;20407;-64
2023/03/14 00:31:01;;;;;;;2.40;0.88;;;14.50;71.90;;;;;;5031486;28;20022;-68
2023/03/14 00:33:27;;;;;;;2.58;0.82;;;14.40;72.60;;;;;;5040844;28;20037;-67
2023/03/14 00:35:58;;;;;;;3.30;1.00;;;14.30;73.20;;;;;;5013793;28;20124;-69
2023/03/14 00:38:24;;;;;;;1.20;1.00;;;14.10;73.60;;;;;;5029425;28;20506;-68
2023/03/14 00:40:51;;;;;;;4.18;1.13;;;14.00;73.80;;;;;;5031527;28;20116;-68
2023/03/14 00:43:17;;;;;;;2.25;1.17;;;14.00;74.00;;;;;;5030360;28;20034;-68
2023/03/14 00:45:43;;;;;;;2.13;1.13;;;13.90;73.90;;;;;;5033888;28;20029;-70
2023/03/14 00:48:08;;;;;;;2.80;0.65;;;13.90;73.80;;;;;;5030131;28;20033;-69
2023/03/14 00:50:34;;;;;;;1.15;0.93;;;13.90;73.40;;;;;;5013533;28;20121;-69
2023/03/14 00:53:00;;;;;;;1.20;0.60;;;13.90;73.00;;;;;;5033288;28;20029;-69
2023/03/14 00:55:26;;;;;;;2.33;1.42;;;13.80;72.80;;;;;;5036428;28;20056;-69
2023/03/14 00:57:51;;;;;;;1.27;1.08;;;13.80;72.80;;;;;;5014031;28;20099;-68
2023/03/14 01:00:17;;;;;;;1.45;0.60;;;13.80;72.70;;;;;;5032951;28;20029;-68
2023/03/14 01:02:44;;;;;;;0.75;0.60;;;13.70;72.40;;;;;;5003427;28;20041;-69
2023/03/14 01:05:12;;;;;;;1.30;0.63;;;13.70;72.10;;;;;;5037047;28;20060;-69
2023/03/14 01:07:38;;;;;;;1.00;0.60;;;13.70;72.00;;;;;;5031176;28;20084;-70
2023/03/14 01:10:05;;;;;;;1.67;0.60;;;13.60;71.90;;;;;;5016002;28;20041;-69
2023/03/14 01:12:31;;;;;;;2.05;1.13;;;13.60;71.90;;;;;;5030726;28;20399;-65
2023/03/14 01:14:57;;;;;;;2.00;0.80;;;13.60;71.80;;;;;;5037561;28;20060;-68
2023/03/14 01:17:23;;;;;;;3.42;1.10;;;13.60;71.90;;;;;;5015599;28;20427;-64
2023/03/14 01:19:48;;;;;;;1.60;1.00;;;13.50;71.90;;;;;;5030422;28;20029;-64
2023/03/14 01:22:14;;;;;;;1.75;0.68;;;13.50;72.00;;;;;;5025458;28;20037;-65
2023/03/14 01:24:40;;;;;;;2.90;0.75;;;13.50;72.00;;;;;;5022836;28;20037;-63
2023/03/14 01:27:05;;;;;;;1.23;0.63;;;13.50;72.00;;;;;;5035214;28;20053;-63
2023/03/14 01:29:31;;;;;;;2.75;1.13;;;13.60;71.90;;;;;;5022163;28;20447;-64
2023/03/14 01:31:57;;;;;;;2.38;0.98;;;13.60;71.80;;;;;;5033959;28;20029;-62
2023/03/14 01:34:23;;;;;;;1.00;0.68;;;13.60;71.70;;;;;;5030407;28;20029;-64
2023/03/14 01:36:48;;;;;;;1.55;1.10;;;13.50;71.50;;;;;;5008175;28;20033;-63
2023/03/14 01:39:14;;;;;;;2.10;0.80;;;13.50;71.40;;;;;;5030253;28;20069;-68
2023/03/14 01:41:40;;;;;;;3.25;0.93;;;13.50;71.20;;;;;;5031490;28;20412;-62
2023/03/14 01:44:12;;;;;;;2.38;1.25;;;13.50;71.00;;;;;;5030526;28;20026;-69
2023/03/14 01:46:42;;;;;;;2.60;0.95;;;13.50;71.10;;;;;;5024058;28;20074;-63
2023/03/14 01:49:14;;;;;;;1.10;0.60;;;13.40;71.30;;;;;;5024377;28;20033;-65
2023/03/14 01:51:52;;;;;;;;;;;13.40;71.90;;;;;;5031002;28;20132;-65
2023/03/14 01:54:30;;;;;;;1.08;0.65;;;13.30;72.40;;;;;;5028523;28;19920;-68
2023/03/14 01:57:29;;;;;;;2.30;1.27;;;13.20;73.50;;;;;;5028989;28;20036;-70
2023/03/14 02:00:05;;;;;;;2.80;1.30;;;13.10;73.50;;;;;;4999882;28;20065;-72
2023/03/14 02:02:31;;;;;;;2.20;1.05;;;13.00;74.40;;;;;;5030624;28;20018;-70
2023/03/14 02:04:59;;;;;;;1.63;1.08;;;12.90;75.50;;;;;;5028856;28;20034;-72
2023/03/14 02:07:39;;;;;;;3.22;1.35;;;12.70;76.30;;;;;;5029307;28;20095;-62
2023/03/14 02:10:06;;;;;;;1.45;1.10;;;12.60;76.90;;;;;;5026336;28;20053;-64
2023/03/14 02:12:33;;;;;;;3.65;0.73;;;12.50;77.60;;;;;;5017423;28;20029;-63
2023/03/14 02:14:59;;;;;;;8.18;1.42;;;12.50;78.40;;;;;;5029447;28;20429;-63
2023/03/14 02:17:25;;;;;;;4.30;1.10;;;12.40;78.40;;;;;;5012634;28;20025;-63
2023/03/14 02:20:07;;;;;;;5.20;1.05;;;12.40;78.80;;;;;;5030434;28;20104;-69
2023/03/14 02:22:34;;;;;;;3.70;1.00;;;12.30;79.10;;;;;;5023584;28;20028;-69
2023/03/14 02:25:26;;;;;;;4.45;1.08;;;12.20;79.80;;;;;;5030654;28;20033;-70
2023/03/14 02:27:52;;;;;;;5.35;1.10;;;12.30;79.60;;;;;;5030746;28;20048;-70
2023/03/14 02:30:19;;;;;;;4.05;1.45;;;12.10;80.20;;;;;;5031249;28;20037;-69
2023/03/14 02:32:48;;;;;;;8.38;2.15;;;12.00;80.60;;;;;;5033363;28;20029;-66
2023/03/14 02:35:50;;;;;;;7.55;3.42;;;12.00;80.70;;;;;;5023628;28;20559;-67
2023/03/14 02:38:29;;;;;;;5.75;3.13;;;12.00;81.10;;;;;;5027566;28;20033;-67
2023/03/14 02:40:54;;;;;;;9.38;2.60;;;11.90;81.80;;;;;;5032998;28;20433;-65
2023/03/14 02:43:20;;;;;;;5.07;1.92;;;11.70;82.40;;;;;;5029130;28;20147;-63
2023/03/14 02:45:47;;;;;;;5.80;2.05;;;11.70;82.70;;;;;;5029888;28;20022;-64
2023/03/14 02:48:30;;;;;;;2.45;1.00;;;11.70;82.70;;;;;;5024128;28;20048;-64
2023/03/14 02:50:58;;;;;;;0.98;0.80;;;11.80;82.50;;;;;;5012492;28;20067;-64
2023/03/14 02:53:34;;;;;;;1.83;0.98;;;11.80;82.30;;;;;;5027907;28;20069;-70
2023/03/14 02:56:00;;;;;;;2.97;1.05;;;11.90;82.20;;;;;;5024865;28;20105;-65
2023/03/14 02:58:26;;;;;;;2.10;1.05;;;11.90;82.00;;;;;;5033729;28;20044;-71
2023/03/14 03:00:52;;;;;;;3.03;1.10;;;12.00;81.80;;;;;;5029426;28;20026;-64
2023/03/14 03:03:18;;;;;;;1.60;1.27;;;12.10;81.50;;;;;;5028207;28;20404;-71
2023/03/14 03:05:51;;;;;;;1.52;0.70;;;12.10;81.20;;;;;;5027711;28;20033;-71
2023/03/14 03:08:18;;;;;;;1.65;0.95;;;12.20;81.10;;;;;;5025087;28;20082;-63
2023/03/14 03:10:44;;;;;;;6.15;0.70;;;12.30;80.80;;;;;;5007059;28;20022;-62
2023/03/14 03:13:10;;;;;;;0.60;0.43;;;12.30;80.50;;;;;;5035493;28;20028;-63
2023/03/14 03:15:35;;;;;;;2.00;0.75;;;12.30;80.30;;;;;;5011002;28;20025;-72
2023/03/14 03:18:01;;;;;;;1.38;0.65;;;12.30;80.10;;;;;;5035178;28;20087;-71
2023/03/14 03:20:27;;;;;;;2.25;0.93;;;12.30;80.10;;;;;;5011891;28;20484;-71
2023/03/14 03:22:52;;;;;;;0.80;0.63;;;12.30;80.10;;;;;;5009478;28;20481;-63
2023/03/14 03:25:18;;;;;;;2.50;1.13;;;12.30;80.00;;;;;;5018758;28;20037;-70
2023/03/14 03:27:44;;;;;;;3.13;1.30;;;12.20;80.00;;;;;;5015844;28;20198;-72
2023/03/14 03:30:10;;;;;;;2.10;1.13;;;12.10;80.30;;;;;;5038520;28;20404;-70
2023/03/14 03:32:36;;;;;;;1.55;0.80;;;12.10;80.40;;;;;;5033440;28;20036;-64
2023/03/14 03:35:03;;;;;;;1.30;0.65;;;12.10;80.40;;;;;;5029370;28;20021;-66
2023/03/14 03:37:33;;;;;;;4.90;1.08;;;12.10;80.30;;;;;;5034988;28;20038;-64
2023/03/14 03:40:00;;;;;;;2.22;0.90;;;12.10;80.30;;;;;;5038417;28;20425;-64
2023/03/14 03:42:27;;;;;;;1.08;0.82;;;12.10;80.20;;;;;;5043835;28;20017;-70
2023/03/14 03:44:53;;;;;;;3.20;1.05;;;12.20;80.00;;;;;;5035304;28;20045;-72
2023/03/14 03:47:18;;;;;;;2.72;1.15;;;12.20;79.90;;;;;;5034294;28;20033;-63
2023/03/14 03:49:44;;;;;;;6.70;0.90;;;12.20;79.80;;;;;;5030203;28;20033;-64
2023/03/14 03:52:10;;;;;;;1.10;0.68;;;12.20;79.70;;;;;;5038322;28;20108;-65
2023/03/14 03:54:36;;;;;;;3.15;0.88;;;12.30;79.60;;;;;;5016809;28;20507;-63
2023/03/14 03:57:01;;;;;;;2.80;1.55;;;12.30;79.40;;;;;;5030473;28;20057;-63
2023/03/14 03:59:27;;;;;;;2.67;0.88;;;12.30;79.40;;;;;;5032177;28;20055;-72
2023/03/14 04:01:53;;;;;;;3.20;1.17;;;12.30;79.10;;;;;;5037698;28;20033;-71
2023/03/14 04:04:19;;;;;;;3.17;1.25;;;12.20;79.00;;;;;;5012783;28;20106;-72
2023/03/14 04:06:44;;;;;;;2.58;1.58;;;12.20;79.00;;;;;;5029223;28;20550;-72
2023/03/14 04:09:11;;;;;;;4.22;1.20;;;12.20;79.00;;;;;;5027668;28;20037;-72
2023/03/14 04:11:37;;;;;;;2.08;1.10;;;12.30;79.00;;;;;;5027241;28;20030;-65
2023/03/14 04:14:03;;;;;;;1.95;0.98;;;12.30;78.90;;;;;;5029460;28;20033;-63
2023/03/14 04:16:31;;;;;;;3.95;1.38;;;12.30;78.80;;;;;;5029194;28;20507;-64
2023/03/14 04:18:57;;;;;;;5.78;1.13;;;12.20;78.50;;;;;;5020512;28;20032;-64
2023/03/14 04:21:23;;;;;;;2.83;1.13;;;12.20;78.60;;;;;;5023602;28;20037;-67
2023/03/14 04:23:49;;;;;;;4.28;1.20;;;12.20;78.70;;;;;;4999635;28;20029;-67
2023/03/14 04:26:15;;;;;;;1.60;0.90;;;12.20;78.50;;;;;;5013144;28;20057;-67
2023/03/14 04:28:40;;;;;;;5.47;1.15;;;12.20;78.50;;;;;;5019299;28;20059;-67
2023/03/14 04:31:10;;;;;;;1.90;1.30;;;12.20;78.40;;;;;;5024159;28;20034;-66
2023/03/14 04:33:37;;;;;;;1.55;1.05;;;12.20;78.30;;;;;;5002789;28;20036;-66
2023/03/14 04:36:05;;;;;;;7.63;0.90;;;12.30;78.20;;;;;;5004222;28;20072;-67
2023/03/14 04:38:30;;;;;;;5.97;1.33;;;12.30;78.10;;;;;;5028061;28;20036;-63
2023/03/14 04:40:56;;;;;;;3.08;0.90;;;12.30;78.10;;;;;;5030530;28;20017;-63
2023/03/14 04:43:22;;;;;;;1.80;1.05;;;12.30;78.00;;;;;;5013310;28;20531;-63
2023/03/14 04:45:47;;;;;;;3.45;0.75;;;12.30;78.00;;;;;;5017993;28;20104;-64
2023/03/14 04:48:13;;;;;;;2.08;1.13;;;12.30;78.00;;;;;;5027902;28;20308;-63
2023/03/14 04:50:39;;;;;;;1.65;0.70;;;12.30;77.70;;;;;;5028039;28;20025;-64
2023/03/14 04:53:05;;;;;;;3.55;1.13;;;12.30;77.70;;;;;;5009728;28;20022;-65
2023/03/14 04:55:32;;;;;;;6.55;1.33;;;12.30;77.70;;;;;;5024258;28;20121;-64
2023/03/14 04:57:58;;;;;;;1.45;0.82;;;12.30;77.60;;;;;;5036192;28;20022;-63
2023/03/14 05:00:24;;;;;;;1.05;0.77;;;12.40;77.60;;;;;;5036424;28;20033;-69
2023/03/14 05:02:50;;;;;;;3.60;1.00;;;12.40;77.30;;;;;;5026406;28;20026;-64
2023/03/14 05:05:16;;;;;;;2.75;0.90;;;12.40;77.30;;;;;;5016856;28;20484;-68
2023/03/14 05:07:42;;;;;;;0.98;0.93;;;12.40;77.10;;;;;;5011635;28;20428;-69
2023/03/14 05:10:09;;;;;;;2.65;1.40;;;12.40;76.90;;;;;;5011083;28;20045;-67
2023/03/14 05:12:35;;;;;;;9.55;0.93;;;12.40;77.30;;;;;;5035261;28;20036;-67
2023/03/14 05:15:00;;;;;;;1.23;0.47;;;12.30;77.50;;;;;;5031061;28;20245;-70
2023/03/14 05:17:26;;;;;;;0.73;0.73;;;12.30;77.70;;;;;;5035607;28;20040;-66
2023/03/14 05:19:51;;;;;;;2.60;0.88;;;12.30;77.80;;;;;;5020229;28;20031;-65
2023/03/14 05:22:17;;;;;;;1.17;0.57;;;12.30;77.80;;;;;;5030595;28;20481;-66
2023/03/14 05:24:44;;;;;;;2.47;0.65;;;12.20;77.90;;;;;;5031409;28;20489;-68
2023/03/14 05:27:10;;;;;;;0.93;0.77;;;12.20;78.00;;;;;;5025030;28;20386;-68
2023/03/14 05:29:35;;;;;;;1.20;0.70;;;12.20;78.10;;;;;;5024792;28;20041;-69
2023/03/14 05:32:01;;;;;;;1.50;0.90;;;12.20;78.10;;;;;;5008228;28;20022;-69
2023/03/14 05:34:27;;;;;;;1.38;0.82;;;12.20;78.30;;;;;;5043634;28;20033;-69
2023/03/14 05:36:52;;;;;;;4.60;0.93;;;12.10;78.40;;;;;;5030376;28;20373;-63
2023/03/14 05:39:18;;;;;;;1.10;0.55;;;12.10;78.40;;;;;;5036188;28;20460;-69
2023/03/14 05:41:44;;;;;;;1.27;0.63;;;12.10;78.40;;;;;;5010339;28;20099;-64
2023/03/14 05:44:09;;;;;;;3.97;0.98;;;12.10;78.70;;;;;;5014249;28;20444;-64
2023/03/14 05:46:35;;;;;;;4.13;0.75;;;12.10;78.90;;;;;;5012030;28;20392;-69
2023/03/14 05:49:01;;;;;;;1.05;0.30;;;12.10;79.10;;;;;;5033827;28;20039;-69
2023/03/14 05:51:27;;;;;;;1.17;0.52;;;12.10;79.10;;;;;;5028102;28;20057;-69
2023/03/14 05:53:52;;;;;;;1.48;0.60;;;12.10;79.10;;;;;;5024253;28;20044;-63
2023/03/14 05:56:18;;;;;;;1.58;0.68;;;12.10;79.30;;;;;;5027612;28;20050;-64
2023/03/14 05:58:44;;;;;;;2.10;0.40;;;12.10;79.30;;;;;;5009570;28;20037;-63
2023/03/14 06:01:10;;;;;;;1.85;0.85;;;12.00;79.50;;;;;;5011455;28;20093;-64
2023/03/14 06:03:35;;;;;;;1.23;0.95;;;12.00;79.90;;;;;;5006261;28;20029;-63
2023/03/14 06:06:02;;;;;;;4.57;0.70;;;11.90;80.10;;;;;;5010209;28;20025;-63
2023/03/14 06:08:28;;;;;;;3.58;1.13;;;11.90;80.40;;;;;;5026444;28;20040;-64
2023/03/14 06:10:54;;;;;;;0.40;0.40;;;11.90;80.60;;;;;;5026993;28;20037;-70
2023/03/14 06:13:20;;;;;;;2.20;0.60;;;11.90;80.80;;;;;;5008726;28;20021;-69
2023/03/14 06:15:46;;;;;;;3.55;1.08;;;11.90;81.00;;;;;;5025314;28;20515;-69
2023/03/14 06:18:12;;;;;;;1.75;1.02;;;11.90;81.00;;;;;;5007849;28;20058;-70
2023/03/14 06:20:39;;;;;;;2.67;0.73;;;11.90;81.00;;;;;;5031131;28;20527;-69
2023/03/14 06:23:05;;;;;;;2.60;1.05;;;11.90;81.00;;;;;;5038344;28;20361;-69
2023/03/14 06:25:32;;;;;;;0.47;0.47;;;11.90;81.00;;;;;;5035305;28;20395;-69
2023/03/14 06:27:58;;;;;;;0.80;0.60;;;11.90;81.40;;;;;;5037335;28;20120;-63
2023/03/14 06:30:23;;;;;;;0.40;0.40;;;11.90;81.50;;;;;;5029494;28;20524;-64
2023/03/14 06:32:50;;;;;;;1.13;0.70;;;11.90;81.80;;;;;;5007731;28;20044;-69
2023/03/14 06:35:15;;;;;;;0.50;0.50;;;11.90;81.90;;;;;;5006323;28;20079;-69
2023/03/14 06:37:41;;;;;;;1.42;0.75;;;11.90;81.90;;;;;;5025174;28;20025;-71
2023/03/14 06:40:08;;;;;;;0.43;0.35;;;11.90;82.20;;;;;;5017809;28;20029;-72
2023/03/14 06:42:34;;;;;;;3.13;1.13;;;11.90;82.20;;;;;;5008670;28;20037;-63
2023/03/14 06:45:00;;;;;;;1.15;0.95;;;11.90;82.30;;;;;;5029051;28;20390;-66
2023/03/14 06:47:26;;;;;;;0.82;0.70;;;11.90;82.40;;;;;;5030760;28;20033;-67
2023/03/14 06:49:51;;;;;;;0.75;0.50;;;12.00;82.50;;;;;;5014732;28;20034;-66
2023/03/14 06:52:17;;;;;;;0.98;0.57;;;11.90;82.90;;;;;;5022138;28;20033;-65
2023/03/14 06:54:43;;;;;;;1.95;0.60;;;11.90;83.10;;;;;;5026266;28;20025;-64
2023/03/14 06:57:08;;;;;;;0.52;0.52;;;11.90;83.30;;;;;;5029027;28;20112;-68
2023/03/14 06:59:34;;;;;;;1.23;0.50;;;11.90;83.30;;;;;;5032474;28;20084;-67
2023/03/14 07:01:59;;;;;;;1.13;0.82;;;11.90;83.60;;;;;;5032624;28;20064;-68
2023/03/14 07:04:25;;;;;;;2.53;0.80;;;11.80;83.70;;;;;;5025655;28;20040;-69
2023/03/14 07:06:51;;;;;;;0.70;0.60;;;11.80;83.70;;;;;;5033214;28;20049;-70
2023/03/14 07:09:19;;;;;;;4.43;1.27;;;11.90;83.70;;;;;;4995941;28;20448;-73
2023/03/14 07:11:45;;;;;;;2.25;1.15;;;11.90;83.90;;;;;;5028306;28;20032;-67
2023/03/14 07:14:11;;;;;;;1.63;0.90;;;11.90;84.20;;;;;;5032020;28;20038;-67
2023/03/14 07:16:37;;;;;;;1.88;1.05;;;11.90;84.10;;;;;;5028209;28;20045;-67
2023/03/14 07:19:03;;;;;;;2.70;0.73;;;11.90;84.10;;;;;;5030157;28;20021;-68
2023/03/14 07:21:29;;;;;;;2.13;1.08;;;12.00;84.20;;;;;;5025002;28;20041;-68
2023/03/14 07:23:55;;;;;;;1.70;0.88;;;11.90;84.30;;;;;;5032409;28;20427;-69
2023/03/14 07:26:20;;;;;;;2.33;0.65;;;12.00;84.20;;;;;;5006561;28;20034;-68
2023/03/14 07:28:46;;;;;;;0.93;0.70;;;12.00;84.10;;;;;;5029573;28;20076;-67
2023/03/14 07:31:12;;;;;;;1.08;0.60;;;12.00;84.30;;;;;;4977774;28;20029;-65
2023/03/14 07:33:37;;;;;;;1.92;1.02;;;11.90;84.70;;;;;;5012161;28;20033;-67
2023/03/14 07:36:04;;;;;;;0.73;0.70;;;11.80;85.20;;;;;;5028158;28;20527;-67
2023/03/14 07:38:30;;;;;;;0.80;0.60;;;11.70;85.40;;;;;;5011236;28;20125;-68
2023/03/14 07:41:14;;;;;;;1.23;0.52;;;11.70;85.40;;;;;;5026748;28;20423;-69
2023/03/14 07:43:39;;;;;;;0.60;0.60;;;11.70;84.60;;;;;;5021291;28;20029;-68
2023/03/14 07:46:05;;;;;;;1.15;0.88;;;11.70;84.50;;;;;;5036674;28;20029;-68
2023/03/14 07:48:31;;;;;;;1.90;0.60;;;11.70;84.20;;;;;;5023411;28;20034;-64
2023/03/14 07:50:57;;;;;;;0.50;0.40;;;11.70;83.20;;;;;;5020723;28;20377;-66
2023/03/14 07:53:24;;;;;;;0.52;0.40;;;11.60;82.60;;;;;;5028568;28;20034;-65
2023/03/14 07:55:51;;;;;;;0.85;0.30;;;11.40;82.30;;;;;;5024753;28;20033;-65
2023/03/14 07:58:17;;;;;;;0.30;0.30;;;11.40;82.30;;;;;;5026871;28;20033;-64
2023/03/14 08:00:43;;;;;;;0.43;0.13;;;11.30;81.80;;;;;;5003590;28;20037;-65
2023/03/14 08:03:09;;;;;;;0.38;0.38;;;11.20;81.80;;;;;;5009395;28;20032;-65
2023/03/14 08:05:39;;;;;;;0.60;0.30;;;11.10;81.90;;;;;;5029931;28;20021;-64
2023/03/14 08:08:05;;;;;;;0.65;0.35;;;11.00;82.00;;;;;;5029244;28;20144;-64
2023/03/14 08:10:31;;;;;;;2.28;0.52;;;11.00;82.00;;;;;;5024010;28;20469;-64
2023/03/14 08:12:59;;;;;;;0.40;0.25;;;10.90;82.10;;;;;;5009941;28;20075;-63
2023/03/14 08:15:25;;;;;;;2.65;0.20;;;10.80;82.30;;;;;;5027068;28;20526;-64
2023/03/14 08:17:53;;;;;;;0.95;0.43;;;10.70;82.40;;;;;;5036987;28;20022;-65
2023/03/14 08:20:19;;;;;;;0.20;0.20;;;10.70;82.50;;;;;;5013341;28;20373;-68
2023/03/14 08:22:44;;;;;;;0.30;0.30;;;10.70;82.50;;;;;;5027187;28;20784;-64
2023/03/14 08:25:10;;;;;;;0.20;0.20;;;10.70;82.50;;;;;;5030916;28;20037;-62
2023/03/14 08:27:38;;;;;;;1.02;0.38;;;10.70;82.40;;;;;;5021547;28;20088;-62
2023/03/14 08:30:06;;;;;;;0.30;0.20;;;10.70;82.10;;;;;;5010899;28;20018;-63
2023/03/14 08:32:32;;;;;;;0.30;0.30;;;10.70;81.90;;;;;;5021044;28;20111;-63
2023/03/14 08:34:57;;;;;;;2.60;0.52;;;10.70;81.60;;;;;;5025143;28;20030;-62
2023/03/14 08:37:24;;;;;;;1.33;0.68;;;10.60;81.70;;;;;;5021196;28;20112;-62
2023/03/14 08:39:51;;;;;;;0.32;0.30;;;10.60;81.80;;;;;;5004423;28;20022;-70
2023/03/14 08:42:17;;;;;;;0.38;0.30;;;10.50;81.70;;;;;;5027298;28;20025;-63
2023/03/14 08:44:42;;;;;;;0.50;0.30;;;10.40;81.40;;;;;;5004329;28;20079;-62
2023/03/14 08:47:08;;;;;;;1.45;1.00;;;10.30;81.60;;;;;;5020825;28;20196;-63
2023/03/14 08:50:03;;;;;;;0.68;0.45;;;10.30;81.40;;;;;;5031415;28;21004;-63
2023/03/14 08:52:30;;;;;;;0.75;0.40;;;10.20;81.10;;;;;;5029093;28;20411;-63
2023/03/14 08:54:56;;;;;;;3.17;0.50;;;10.10;81.20;;;;;;5018521;28;20032;-63
2023/03/14 08:57:27;;;;;;;1.35;0.45;;;10.10;81.30;;;;;;5036620;28;20501;-68
2023/03/14 08:59:54;;;;;;;4.18;0.40;;;10.00;80.10;;;;;;5027221;28;20037;-64
2023/03/14 09:02:19;;;;;;;0.65;0.45;;;10.00;81.10;;;;;;5032585;28;20512;-63
2023/03/14 09:04:45;;;;;;;0.80;0.32;;;10.00;80.40;;;;;;5011663;28;20028;-68
2023/03/14 09:07:11;;;;;;;0.32;0.32;;;10.10;80.20;;;;;;5031897;28;20045;-63
2023/03/14 09:09:36;;;;;;;0.57;0.40;;;10.00;79.90;;;;;;5029172;28;20037;-63
2023/03/14 09:12:02;;;;;;;2.05;0.40;;;10.00;79.70;;;;;;5012135;28;20017;-70
2023/03/14 09:14:28;;;;;;;1.33;0.30;;;10.10;79.80;;;;;;5013443;28;20055;-63
2023/03/14 09:16:54;;;;;;;1.15;0.55;;;10.10;79.60;;;;;;5020896;28;20022;-63
2023/03/14 09:19:20;;;;;;;2.67;0.73;;;10.00;79.60;;;;;;5032859;28;20057;-69
2023/03/14 09:21:46;;;;;;;0.68;0.38;;;10.00;79.60;;;;;;5001776;28;20257;-63
2023/03/14 09:24:11;;;;;;;0.95;0.45;;;9.90;79.70;;;;;;5015166;28;20029;-69
2023/03/14 09:26:37;;;;;;;1.40;0.88;;;9.90;79.80;;;;;;5024296;28;20136;-63
2023/03/14 09:29:03;;;;;;;2.60;0.40;;;9.80;79.30;;;;;;5030503;28;20515;-63
2023/03/14 09:31:29;;;;;;;0.25;0.25;;;9.70;79.30;;;;;;5032839;28;20022;-62
2023/03/14 09:33:55;;;;;;;0.43;0.35;;;9.70;79.00;;;;;;5021326;28;20041;-64
2023/03/14 09:36:21;;;;;;;0.32;0.20;;;9.80;79.20;;;;;;5025643;28;20468;-69
2023/03/14 09:38:47;;;;;;;0.20;0.20;;;10.00;78.70;;;;;;5029456;28;20032;-69
2023/03/14 09:41:27;;;;;;;0.95;0.52;;;10.20;78.00;;;;;;5038462;28;20029;-70
2023/03/14 09:44:01;;;;;;;0.25;0.20;;;10.50;77.90;;;;;;5028352;28;20025;-64
2023/03/14 09:46:29;;;;;;;0.10;0.10;;;10.70;77.20;;;;;;5033025;28;20030;-63
2023/03/14 09:48:55;;;;;;;0.30;0.30;;;10.80;75.30;;;;;;5031247;28;20025;-70
2023/03/14 09:51:24;;;;;;;0.10;0.10;;;10.70;73.60;;;;;;5028488;28;20387;-69
2023/03/14 09:53:51;;;;;;;0.60;0.20;;;10.70;74.00;;;;;;5032247;28;20040;-63
2023/03/14 09:56:21;;;;;;;0.10;0.10;;;10.60;73.50;;;;;;5031358;28;20033;-63
2023/03/14 09:59:03;;;;;;;0.90;0.40;;;10.70;74.00;;;;;;5029449;28;20026;-69
2023/03/14 10:01:31;;;;;;;0.10;0.10;;;10.70;73.80;;;;;;5006794;28;20024;-69
2023/03/14 10:04:09;;;;;;;0.28;0.22;;;10.70;73.70;;;;;;5024667;28;20041;-69
2023/03/14 10:06:35;;;;;;;2.85;0.60;;;10.60;73.00;;;;;;5022087;28;20499;-70
2023/03/14 10:09:02;;;;;;;0.95;0.60;;;10.50;72.70;;;;;;5025765;28;20076;-63
2023/03/14 10:11:27;;;;;;;2.95;0.45;;;10.50;73.10;;;;;;5012679;28;20029;-63
2023/03/14 10:14:08;;;;;;;1.48;0.55;;;10.60;73.10;;;;;;5039303;28;20036;-62
2023/03/14 10:16:41;;;;;;;0.25;0.20;;;10.80;72.90;;;;;;5025482;28;20037;-62
2023/03/14 10:19:13;;;;;;;2.55;0.40;;;10.90;71.70;;;;;;5006164;28;20026;-63
2023/03/14 10:21:51;;;;;;;1.10;0.40;;;10.90;71.90;;;;;;5027009;28;20078;-70
2023/03/14 10:24:21;;;;;;;3.33;0.60;;;10.90;72.30;;;;;;5028926;28;20033;-63
2023/03/14 10:26:53;;;;;;;1.10;0.98;;;10.80;70.90;;;;;;5033177;28;20045;-69
2023/03/14 10:29:21;;;;;;;1.25;0.55;;;10.60;70.70;;;;;;5008543;28;20029;-69
2023/03/14 10:31:51;;;;;;;1.20;0.57;;;10.50;71.20;;;;;;5026691;28;20449;-63
2023/03/14 10:34:23;;;;;;;1.23;0.65;;;10.50;71.40;;;;;;5022910;28;20037;-70
2023/03/14 10:37:03;;;;;;;1.27;0.70;;;10.50;71.80;;;;;;5025244;28;20033;-69
2023/03/14 10:39:33;;;;;;;0.60;0.60;;;10.50;71.40;;;;;;5021275;28;20047;-69
2023/03/14 10:42:20;;;;;;;2.88;0.77;;;10.50;71.20;;;;;;5020855;28;20037;-70
2023/03/14 10:45:09;;;;;;;1.50;1.23;;;10.60;71.20;;;;;;5026045;28;20491;-70
2023/03/14 10:47:35;;;;;;;2.72;1.17;;;10.60;71.40;;;;;;5013885;28;20148;-63
2023/03/14 10:50:31;;;;;;;1.63;0.98;;;10.60;70.80;;;;;;5010196;28;20045;-63
2023/03/14 10:53:00;;;;;;;3.65;0.85;;;10.70;70.70;;;;;;5013501;28;20112;-62
2023/03/14 10:55:26;;;;;;;3.25;0.88;;;10.50;71.00;;;;;;5025182;28;20029;-63
2023/03/14 10:57:52;;;;;;;3.38;1.00;;;10.40;71.60;;;;;;5024880;28;20032;-64
2023/03/14 11:00:22;;;;;;;4.70;1.00;;;10.30;71.80;;;;;;4984748;28;21251;-63
2023/03/14 11:03:06;;;;;;;6.20;1.00;;;10.30;72.40;;;;;;5005826;28;20033;-70
2023/03/14 11:06:13;;;;;;;1.63;0.93;;;10.10;71.50;;;;;;5025760;28;20033;-69
2023/03/14 11:08:53;;;;;;;6.15;1.65;;;10.10;71.70;;;;;;5018368;28;20029;-70
2023/03/14 11:11:22;;;;;;;7.28;1.85;;;10.00;72.40;;;;;;5026525;28;20033;-69
2023/03/14 11:13:56;;;;;;;2.00;1.15;;;10.10;72.10;;;;;;5019581;28;20037;-64
2023/03/14 11:16:38;;;;;;;2.10;0.90;;;10.00;71.40;;;;;;5007589;28;20032;-63
2023/03/14 11:19:51;;;;;;;5.27;1.20;;;10.20;72.20;;;;;;5026891;28;20033;-63
2023/03/14 11:22:37;;;;;;;6.53;0.82;;;10.60;71.90;;;;;;4952655;28;20030;-63
2023/03/14 11:25:17;;;;;;;1.70;1.08;;;10.90;70.90;;;;;;4969956;28;20031;-68
2023/03/14 11:28:00;;;;;;;5.47;1.90;;;11.00;70.00;;;;;;5012860;28;20512;-69
2023/03/14 11:30:41;;;;;;;;;;;11.00;68.80;;;;;;5007587;28;20048;-70
2023/03/14 11:33:17;;;;;;;2.92;1.38;;;10.70;69.70;;;;;;5023847;28;19905;-62
2023/03/14 11:36:03;;;;;;;6.10;1.50;;;10.70;69.00;;;;;;5024712;28;20122;-64
2023/03/14 11:38:38;;;;;;;1.73;1.00;;;10.60;69.30;;;;;;5028614;28;20017;-69
2023/03/14 11:41:09;;;;;;;3.45;1.55;;;10.70;69.10;;;;;;5029140;28;20467;-62
2023/03/14 11:43:42;;;;;;;5.22;1.67;;;10.70;69.10;;;;;;5004789;28;20036;-62
2023/03/14 11:46:21;;;;;;;3.05;1.25;;;10.80;68.70;;;;;;5028247;28;20036;-62
2023/03/14 11:48:58;;;;;;;2.47;0.93;;;10.90;68.00;;;;;;5029819;28;20017;-63
2023/03/14 11:51:29;;;;;;;10.18;1.77;;;11.10;67.80;;;;;;5030182;28;20040;-63
2023/03/14 11:54:00;;;;;;;5.10;1.50;;;11.10;65.20;;;;;;5032394;28;20029;-63
2023/03/14 11:56:44;;;;;;;2.40;1.38;;;11.20;62.90;;;;;;5030473;28;20373;-63
2023/03/14 11:59:17;;;;;;;2.88;1.40;;;11.40;62.40;;;;;;5028301;28;20643;-63
2023/03/14 12:01:54;;;;;;;2.15;1.30;;;11.80;61.80;;;;;;5036025;28;20549;-64
2023/03/14 12:04:31;;;;;;;2.15;1.23;;;12.30;61.50;;;;;;5020449;28;20033;-64
2023/03/14 12:07:03;;;;;;;3.42;1.52;;;12.70;58.50;;;;;;5032851;28;20164;-63
2023/03/14 12:09:29;;;;;;;5.38;1.48;;;12.80;57.80;;;;;;5030651;28;20029;-63
2023/03/14 12:11:59;;;;;;;4.68;1.38;;;13.10;55.30;;;;;;5013072;28;20380;-64
2023/03/14 12:14:36;;;;;;;3.80;0.80;;;13.10;54.50;;;;;;5033261;28;20480;-62
2023/03/14 12:17:40;;;;;;;3.63;1.08;;;13.30;54.70;;;;;;5031042;28;20034;-64
2023/03/14 12:20:21;;;;;;;2.60;0.85;;;13.70;54.70;;;;;;5029060;28;20516;-64
2023/03/14 12:22:56;;;;;;;2.85;1.42;;;14.00;53.10;;;;;;5034239;28;20023;-63
2023/03/14 12:25:28;;;;;;;1.73;0.90;;;14.10;51.50;;;;;;5030030;28;20029;-63
2023/03/14 12:27:56;;;;;;;0.63;0.50;;;14.00;49.00;;;;;;5033820;28;20574;-64
2023/03/14 12:30:28;;;;;;;1.75;1.00;;;13.90;48.60;;;;;;5038044;28;20299;-63
2023/03/14 12:33:16;;;;;;;2.17;0.60;;;13.70;48.40;;;;;;5007223;28;20034;-70
2023/03/14 12:35:50;;;;;;;4.43;0.82;;;13.70;46.60;;;;;;5017510;28;20038;-70
2023/03/14 12:38:36;;;;;;;1.63;0.75;;;13.50;47.80;;;;;;5023901;28;21500;-70
2023/03/14 12:41:15;;;;;;;2.13;1.30;;;13.50;47.30;;;;;;5031510;28;20075;-63
2023/03/14 12:43:41;;;;;;;0.50;0.50;;;13.40;44.60;;;;;;5012573;28;20465;-68
2023/03/14 12:46:16;;;;;;;1.95;0.47;;;13.50;44.70;;;;;;5030826;28;20037;-64
2023/03/14 12:48:44;;;;;;;3.50;0.68;;;13.50;42.90;;;;;;5032947;28;20096;-70
2023/03/14 12:51:14;;;;;;;1.85;0.80;;;13.50;43.50;;;;;;5021502;28;20048;-70
2023/03/14 12:54:17;;;;;;;2.95;0.98;;;13.60;45.00;;;;;;5032283;28;20041;-68
2023/03/14 12:56:46;;;;;;;3.80;1.00;;;13.60;43.70;;;;;;5028574;28;20037;-69
2023/03/14 12:59:35;;;;;;;2.30;1.00;;;13.60;43.40;;;;;;5034928;28;20041;-63